createdAt,value
2017-12-25T00:00:14.776Z,1.30
2017-12-25T00:02:44.016Z,1.00
2017-12-25T00:05:13.269Z,0.97
2017-12-25T00:07:42.557Z,1.00
2017-12-25T00:10:12.811Z,1.20
2017-12-25T00:12:42.925Z,1.10
2017-12-25T00:15:12.184Z,1.00
2017-12-25T00:17:41.457Z,1.00
2017-12-25T00:20:10.714Z,1.20
2017-12-25T00:22:40.036Z,1.20
2017-12-25T00:25:09.268Z,1.57
2017-12-25T00:27:38.553Z,1.20
2017-12-25T00:30:07.802Z,1.53
2017-12-25T00:32:37.882Z,1.40
2017-12-25T00:35:07.223Z,1.40
2017-12-25T00:37:37.274Z,1.30
2017-12-25T00:40:06.567Z,1.37
2017-12-25T00:42:35.892Z,1.43
2017-12-25T00:45:05.194Z,1.73
2017-12-25T00:47:35.294Z,1.43
2017-12-25T00:50:04.577Z,1.83
2017-12-25T00:52:34.697Z,1.80
2017-12-25T00:55:04.104Z,1.47
2017-12-25T00:57:33.388Z,1.83
2017-12-25T01:00:02.839Z,1.57
2017-12-25T01:02:32.925Z,2.43
2017-12-25T01:05:02.966Z,2.20
2017-12-25T01:07:32.210Z,3.23
2017-12-25T01:10:01.489Z,2.30
2017-12-25T01:12:30.749Z,2.17
2017-12-25T01:15:00.146Z,2.30
2017-12-25T01:17:29.437Z,2.20
2017-12-25T01:19:58.684Z,1.57
2017-12-25T01:22:27.925Z,2.13
2017-12-25T01:24:57.359Z,1.73
2017-12-25T01:27:26.655Z,1.70
2017-12-25T01:29:56.133Z,1.43
2017-12-25T01:32:25.389Z,3.20
2017-12-25T01:34:54.675Z,2.03
2017-12-25T01:37:24.670Z,1.33
2017-12-25T01:39:53.952Z,1.87
2017-12-25T01:42:23.230Z,1.50
2017-12-25T01:44:52.485Z,1.23
2017-12-25T01:47:22.509Z,1.13
2017-12-25T01:49:51.742Z,1.20
2017-12-25T01:52:22.964Z,1.00
2017-12-25T01:54:52.150Z,1.33
2017-12-25T02:00:44.354Z,1.10
2017-12-25T02:03:13.521Z,1.30
2017-12-25T02:05:52.638Z,1.00
2017-12-25T02:08:33.029Z,1.00
2017-12-25T02:11:01.963Z,1.20
2017-12-25T02:13:30.934Z,1.00
2017-12-25T02:15:59.905Z,0.97
2017-12-25T02:18:29.536Z,1.10
2017-12-25T02:20:58.806Z,1.43
2017-12-25T02:23:28.064Z,1.47
2017-12-25T02:25:57.308Z,1.70
2017-12-25T02:28:26.567Z,0.93
2017-12-25T02:30:55.957Z,1.03
2017-12-25T02:33:25.199Z,1.17
2017-12-25T02:35:55.474Z,1.00
2017-12-25T02:38:24.876Z,0.70
2017-12-25T02:40:54.205Z,0.80
2017-12-25T02:43:23.575Z,0.80
2017-12-25T02:45:52.835Z,1.00
2017-12-25T02:48:22.217Z,0.80
2017-12-25T02:50:51.555Z,1.00
2017-12-25T02:53:20.934Z,0.90
2017-12-25T02:55:50.341Z,0.80
2017-12-25T02:58:20.346Z,0.70
2017-12-25T03:00:50.594Z,0.93
2017-12-25T03:03:20.598Z,0.93
2017-12-25T03:05:50.633Z,0.73
2017-12-25T03:08:19.937Z,0.70
2017-12-25T03:10:50.056Z,1.00
2017-12-25T03:13:19.297Z,0.87
2017-12-25T03:15:48.749Z,1.00
2017-12-25T03:18:18.151Z,0.87
2017-12-25T03:20:48.157Z,0.90
2017-12-25T03:23:17.745Z,1.03
2017-12-25T03:25:47.105Z,0.90
2017-12-25T03:28:17.097Z,0.93
2017-12-25T03:30:46.686Z,0.77
2017-12-25T03:33:15.986Z,0.90
2017-12-25T03:35:45.298Z,0.77
2017-12-25T03:38:15.299Z,1.00
2017-12-25T03:40:44.553Z,0.70
2017-12-25T03:43:13.788Z,0.90
2017-12-25T03:45:43.313Z,1.00
2017-12-25T03:48:12.625Z,1.00
2017-12-25T03:50:42.650Z,1.10
2017-12-25T03:53:12.041Z,0.80
2017-12-25T03:55:41.363Z,1.13
2017-12-25T03:58:11.371Z,0.83
2017-12-25T04:00:40.621Z,1.00
2017-12-25T04:03:09.866Z,1.00
2017-12-25T04:05:39.217Z,0.93
2017-12-25T04:08:08.502Z,0.63
2017-12-25T04:10:38.021Z,0.80
2017-12-25T04:13:07.484Z,0.90
2017-12-25T04:15:37.563Z,1.20
2017-12-25T04:18:06.919Z,0.70
2017-12-25T04:20:36.918Z,0.80
2017-12-25T04:23:06.280Z,0.80
2017-12-25T04:25:35.649Z,0.90
2017-12-25T04:28:05.682Z,0.70
2017-12-25T04:30:34.998Z,0.70
2017-12-25T04:33:04.252Z,0.80
2017-12-25T04:35:33.653Z,0.80
2017-12-25T04:38:03.151Z,0.70
2017-12-25T04:40:32.397Z,1.00
2017-12-25T04:43:02.137Z,0.83
2017-12-25T04:45:31.445Z,0.80
2017-12-25T04:48:00.684Z,0.70
2017-12-25T04:50:30.066Z,0.87
2017-12-25T04:52:59.295Z,0.70
2017-12-25T04:55:28.685Z,0.77
2017-12-25T04:57:58.721Z,0.70
2017-12-25T05:00:28.098Z,0.83
2017-12-25T05:02:57.381Z,1.10
2017-12-25T05:05:27.495Z,1.00
2017-12-25T05:07:56.750Z,0.70
2017-12-25T05:10:25.989Z,1.00
2017-12-25T05:12:55.246Z,0.60
2017-12-25T05:15:24.477Z,0.83
2017-12-25T05:17:53.710Z,1.10
2017-12-25T05:20:23.766Z,0.97
2017-12-25T05:22:53.225Z,0.93
2017-12-25T05:25:22.746Z,0.93
2017-12-25T05:27:51.997Z,0.90
2017-12-25T05:30:21.213Z,0.87
2017-12-25T05:32:50.677Z,1.93
2017-12-25T05:35:20.781Z,0.80
2017-12-25T05:37:50.804Z,1.00
2017-12-25T05:40:20.030Z,0.83
2017-12-25T05:42:49.303Z,0.83
2017-12-25T05:45:19.332Z,1.00
2017-12-25T05:47:48.557Z,0.70
2017-12-25T05:50:17.816Z,0.70
2017-12-25T05:52:47.073Z,0.80
2017-12-25T05:55:16.409Z,0.80
2017-12-25T05:57:45.670Z,0.73
2017-12-25T06:00:14.898Z,0.93
2017-12-25T06:02:44.329Z,0.93
2017-12-25T06:05:14.321Z,0.87
2017-12-25T06:07:43.587Z,1.20
2017-12-25T06:10:13.239Z,0.90
2017-12-25T06:12:42.484Z,0.80
2017-12-25T06:15:11.713Z,0.97
2017-12-25T06:17:40.973Z,0.80
2017-12-25T06:20:10.246Z,1.27
2017-12-25T06:22:39.578Z,1.13
2017-12-25T06:25:09.085Z,1.27
2017-12-25T06:27:38.381Z,1.33
2017-12-25T06:30:07.631Z,1.00
2017-12-25T06:32:36.881Z,1.40
2017-12-25T06:35:06.191Z,1.10
2017-12-25T06:37:36.099Z,0.90
2017-12-25T06:40:05.305Z,1.10
2017-12-25T06:42:34.547Z,1.47
2017-12-25T06:45:03.774Z,1.10
2017-12-25T06:47:33.050Z,1.20
2017-12-25T06:50:02.281Z,1.13
2017-12-25T06:52:32.293Z,1.60
2017-12-25T06:55:01.538Z,1.10
2017-12-25T06:57:30.786Z,1.23
2017-12-25T07:00:00.065Z,1.10
2017-12-25T07:02:29.319Z,1.10
2017-12-25T07:04:58.693Z,1.00
2017-12-25T07:07:27.949Z,1.07
2017-12-25T07:09:57.191Z,1.10
2017-12-25T07:12:26.440Z,1.20
2017-12-25T07:14:55.898Z,0.93
2017-12-25T07:17:25.288Z,1.03
2017-12-25T07:19:54.539Z,0.93
2017-12-25T07:22:23.778Z,1.00
2017-12-25T07:24:53.029Z,1.00
2017-12-25T07:27:22.270Z,1.07
2017-12-25T07:29:51.514Z,1.00
2017-12-25T07:32:21.532Z,1.00
2017-12-25T07:34:50.762Z,1.17
2017-12-25T07:37:20.198Z,1.40
2017-12-25T07:39:49.430Z,1.13
2017-12-25T07:42:18.739Z,1.30
2017-12-25T07:44:47.958Z,1.70
2017-12-25T07:47:17.221Z,0.93
2017-12-25T07:49:46.555Z,1.00
2017-12-25T07:52:16.657Z,1.10
2017-12-25T07:54:46.652Z,1.20
2017-12-25T07:57:16.082Z,1.20
2017-12-25T07:59:46.214Z,1.13
2017-12-25T08:02:16.247Z,1.37
2017-12-25T08:04:45.618Z,1.20
2017-12-25T08:07:14.868Z,1.60
2017-12-25T08:09:44.169Z,1.10
2017-12-25T08:12:13.354Z,1.10
2017-12-25T08:14:42.621Z,1.40
2017-12-25T08:17:11.847Z,1.40
2017-12-25T08:19:41.114Z,1.90
2017-12-25T08:22:10.347Z,1.63
2017-12-25T08:24:39.659Z,1.40
2017-12-25T08:27:08.914Z,1.93
2017-12-25T08:29:38.266Z,1.47
2017-12-25T08:32:07.543Z,2.40
2017-12-25T08:34:36.782Z,1.60
2017-12-25T08:37:06.138Z,2.80
2017-12-25T08:39:35.363Z,2.63
2017-12-25T08:42:04.639Z,2.57
2017-12-25T08:44:33.988Z,2.53
2017-12-25T08:47:03.241Z,2.30
2017-12-25T08:49:32.631Z,2.07
2017-12-25T08:52:01.949Z,2.60
2017-12-25T08:54:31.944Z,1.83
2017-12-25T08:57:01.375Z,2.13
2017-12-25T08:59:31.405Z,2.80
2017-12-25T09:02:00.702Z,3.93
2017-12-25T09:04:29.905Z,3.33
2017-12-25T09:06:59.143Z,2.77
2017-12-25T09:09:28.387Z,3.63
2017-12-25T09:11:57.617Z,3.93
2017-12-25T09:14:26.861Z,3.10
2017-12-25T09:16:56.125Z,2.90
2017-12-25T09:19:25.359Z,2.73
2017-12-25T09:21:55.635Z,2.70
2017-12-25T09:24:25.655Z,3.10
2017-12-25T09:26:54.945Z,3.50
2017-12-25T09:29:24.195Z,2.30
2017-12-25T09:31:53.457Z,3.03
2017-12-25T09:34:23.454Z,3.07
2017-12-25T09:36:52.800Z,2.40
2017-12-25T09:39:22.079Z,2.53
2017-12-25T09:41:51.321Z,3.03
2017-12-25T09:44:20.609Z,2.97
2017-12-25T09:46:49.851Z,2.77
2017-12-25T09:49:19.074Z,2.10
2017-12-25T09:51:48.295Z,2.23
2017-12-25T09:54:17.563Z,2.90
2017-12-25T09:56:47.572Z,2.57
2017-12-25T09:59:16.885Z,2.53
2017-12-25T10:01:46.151Z,2.60
2017-12-25T10:04:15.484Z,2.10
2017-12-25T10:06:44.744Z,2.17
2017-12-25T10:09:14.173Z,2.23
2017-12-25T10:11:43.478Z,2.37
2017-12-25T10:14:12.799Z,2.50
2017-12-25T10:16:42.944Z,2.60
2017-12-25T10:19:12.409Z,1.90
2017-12-25T10:21:41.741Z,3.00
2017-12-25T10:24:11.209Z,1.93
2017-12-25T10:26:40.456Z,1.60
2017-12-25T10:29:11.135Z,1.80
2017-12-25T10:31:40.374Z,1.60
2017-12-25T10:34:09.650Z,2.10
2017-12-25T10:36:38.903Z,1.33
2017-12-25T10:39:08.143Z,1.97
2017-12-25T10:41:37.561Z,1.00
2017-12-25T10:44:07.576Z,0.97
2017-12-25T10:46:36.830Z,0.90
2017-12-25T10:49:06.063Z,1.10
2017-12-25T10:51:35.290Z,1.10
2017-12-25T10:54:04.544Z,1.50
2017-12-25T10:56:33.801Z,1.27
2017-12-25T10:59:03.045Z,0.90
2017-12-25T11:01:32.277Z,1.00
2017-12-25T11:04:02.400Z,1.27
2017-12-25T11:06:32.521Z,1.07
2017-12-25T11:09:02.518Z,1.30
2017-12-25T11:11:32.627Z,2.37
2017-12-25T11:14:02.166Z,2.17
2017-12-25T11:16:31.443Z,0.97
2017-12-25T11:19:01.087Z,0.90
2017-12-25T11:21:30.365Z,1.20
2017-12-25T11:23:59.632Z,0.90
2017-12-25T11:26:28.963Z,1.10
2017-12-25T11:28:58.265Z,1.63
2017-12-25T11:31:27.671Z,0.90
2017-12-25T11:33:56.921Z,1.03
2017-12-25T11:36:26.383Z,1.03
2017-12-25T11:38:55.600Z,1.10
2017-12-25T11:41:25.645Z,1.20
2017-12-25T11:43:55.025Z,1.53
2017-12-25T11:46:25.053Z,1.70
2017-12-25T11:48:54.485Z,2.10
2017-12-25T11:51:23.727Z,1.50
2017-12-25T11:53:53.111Z,1.40
2017-12-25T11:56:22.389Z,1.03
2017-12-25T11:58:51.643Z,1.57
2017-12-25T12:01:21.744Z,1.27
2017-12-25T12:03:51.100Z,1.40
2017-12-25T12:06:20.438Z,1.17
2017-12-25T12:08:49.874Z,1.37
2017-12-25T12:11:19.974Z,1.30
2017-12-25T12:13:49.287Z,1.90
2017-12-25T12:16:18.624Z,1.57
2017-12-25T12:18:47.888Z,1.80
2017-12-25T12:21:17.799Z,1.60
2017-12-25T12:23:47.055Z,1.40
2017-12-25T12:26:16.402Z,3.07
2017-12-25T12:28:45.652Z,2.73
2017-12-25T12:31:15.042Z,2.10
2017-12-25T12:33:44.286Z,1.70
2017-12-25T12:36:13.551Z,1.50
2017-12-25T12:38:42.786Z,1.80
2017-12-25T12:41:12.039Z,1.30
2017-12-25T12:43:41.287Z,2.13
2017-12-25T12:46:10.558Z,2.43
2017-12-25T12:48:40.721Z,2.40
2017-12-25T12:51:09.978Z,2.30
2017-12-25T12:53:39.885Z,2.80
2017-12-25T12:56:09.168Z,2.27
2017-12-25T12:58:38.574Z,2.33
2017-12-25T13:01:08.055Z,2.07
2017-12-25T13:03:37.384Z,2.33
2017-12-25T13:06:07.487Z,2.90
2017-12-25T13:08:37.497Z,2.13
2017-12-25T13:11:06.895Z,1.40
2017-12-25T13:13:36.139Z,2.70
2017-12-25T13:16:05.401Z,2.23
2017-12-25T13:18:35.505Z,1.90
2017-12-25T13:21:04.805Z,2.27
2017-12-25T13:23:34.096Z,2.10
2017-12-25T13:26:03.345Z,2.03
2017-12-25T13:28:33.366Z,1.60
2017-12-25T13:31:02.632Z,2.00
2017-12-25T13:33:33.379Z,2.07
2017-12-25T13:36:02.653Z,2.27
2017-12-25T13:38:31.896Z,1.50
2017-12-25T13:41:01.932Z,1.97
2017-12-25T13:43:31.230Z,1.53
2017-12-25T13:46:00.617Z,1.10
2017-12-25T13:48:30.646Z,1.67
2017-12-25T13:50:59.907Z,1.23
2017-12-25T13:53:30.174Z,1.17
2017-12-25T13:55:59.710Z,1.70
2017-12-25T13:58:29.022Z,2.40
2017-12-25T14:00:59.696Z,2.60
2017-12-25T14:03:28.935Z,2.50
2017-12-25T14:05:58.185Z,2.60
2017-12-25T14:08:27.434Z,2.87
2017-12-25T14:10:56.708Z,2.00
2017-12-25T14:13:26.710Z,2.07
2017-12-25T14:15:55.950Z,2.30
2017-12-25T14:18:25.233Z,1.97
2017-12-25T14:20:54.486Z,7.00
2017-12-25T14:23:23.742Z,8.93
2017-12-25T14:25:52.984Z,8.60
2017-12-25T14:28:22.233Z,3.60
2017-12-25T14:30:52.229Z,4.30
2017-12-25T14:33:21.789Z,3.70
2017-12-25T14:35:51.015Z,4.47
2017-12-25T14:38:20.447Z,4.27
2017-12-25T14:40:50.445Z,2.00
2017-12-25T14:43:19.983Z,2.77
2017-12-25T14:45:49.230Z,2.30
2017-12-25T14:48:18.484Z,1.97
2017-12-25T14:50:48.692Z,2.10
2017-12-25T14:53:17.943Z,3.03
2017-12-25T14:55:47.253Z,1.60
2017-12-25T14:58:16.514Z,1.80
2017-12-25T15:00:45.778Z,2.70
2017-12-25T15:03:15.061Z,1.90
2017-12-25T15:05:44.297Z,2.60
2017-12-25T15:08:13.537Z,2.70
2017-12-25T15:10:42.805Z,3.57
2017-12-25T15:13:12.843Z,2.97
2017-12-25T15:15:42.164Z,4.20
2017-12-25T15:18:11.462Z,4.10
2017-12-25T15:20:40.696Z,3.23
2017-12-25T15:23:09.950Z,2.90
2017-12-25T15:25:39.229Z,2.03
2017-12-25T15:28:09.258Z,3.20
2017-12-25T15:30:38.510Z,3.03
2017-12-25T15:33:07.759Z,3.30
2017-12-25T15:35:37.776Z,4.00
2017-12-25T15:38:07.097Z,3.90
2017-12-25T15:40:36.332Z,3.00
2017-12-25T15:43:05.753Z,3.63
2017-12-25T15:45:35.071Z,3.37
2017-12-25T15:48:05.092Z,9.10
2017-12-25T15:50:34.357Z,4.00
2017-12-25T15:53:03.604Z,4.03
2017-12-25T15:55:32.845Z,3.40
2017-12-25T15:58:02.102Z,3.00
2017-12-25T16:00:31.611Z,3.87
2017-12-25T16:03:00.809Z,3.90
2017-12-25T16:05:30.099Z,4.60
2017-12-25T16:08:00.403Z,5.40
2017-12-25T16:10:29.623Z,3.77
2017-12-25T16:12:58.873Z,4.20
2017-12-25T16:15:28.176Z,4.20
2017-12-25T16:17:57.615Z,3.53
2017-12-25T16:20:26.861Z,4.13
2017-12-25T16:22:56.199Z,4.40
2017-12-25T16:25:25.500Z,3.90
2017-12-25T16:27:54.727Z,4.57
2017-12-25T16:30:23.980Z,4.60
2017-12-25T16:32:53.232Z,4.63
2017-12-25T16:35:23.257Z,5.03
2017-12-25T16:37:52.500Z,3.50
2017-12-25T16:40:21.813Z,3.30
2017-12-25T16:45:26.500Z,3.90
2017-12-25T16:47:56.510Z,4.37
2017-12-25T16:50:25.757Z,5.70
2017-12-25T16:52:55.271Z,6.63
2017-12-25T16:55:24.509Z,6.83
2017-12-25T16:57:54.548Z,5.97
2017-12-25T17:00:23.778Z,4.33
2017-12-25T17:02:53.033Z,8.80
2017-12-25T17:05:23.067Z,6.77
2017-12-25T17:07:52.327Z,5.70
2017-12-25T17:10:21.578Z,5.07
2017-12-25T17:12:50.823Z,7.93
2017-12-25T17:15:20.065Z,4.23
2017-12-25T17:17:49.309Z,5.43
2017-12-25T17:20:18.568Z,11.17
2017-12-25T17:22:48.588Z,5.30
2017-12-25T17:25:17.835Z,10.13
2017-12-25T17:27:47.192Z,4.90
2017-12-25T17:30:16.424Z,4.90
2017-12-25T17:32:45.694Z,6.80
2017-12-25T17:35:15.708Z,6.20
2017-12-25T17:37:44.950Z,7.60
2017-12-25T17:40:14.209Z,12.20
2017-12-25T17:42:43.466Z,7.23
2017-12-25T17:45:12.730Z,7.67
2017-12-25T17:47:41.961Z,4.73
2017-12-25T17:50:11.222Z,6.87
2017-12-25T17:52:40.486Z,6.40
2017-12-25T17:55:09.804Z,5.57
2017-12-25T17:57:39.913Z,7.07
2017-12-25T18:00:09.938Z,7.00
2017-12-25T18:02:39.206Z,6.00
2017-12-25T18:05:08.470Z,6.50
2017-12-25T18:07:37.733Z,5.23
2017-12-25T18:10:07.736Z,6.17
2017-12-25T18:12:36.999Z,6.50
2017-12-25T18:15:06.259Z,5.50
2017-12-25T18:17:36.535Z,6.13
2017-12-25T18:20:05.765Z,4.97
2017-12-25T18:22:35.012Z,4.50
2017-12-25T18:25:04.296Z,5.83
2017-12-25T18:27:34.386Z,10.67
2017-12-25T18:30:03.663Z,8.47
2017-12-25T18:32:32.950Z,6.20
2017-12-25T18:35:02.191Z,9.40
2017-12-25T18:37:31.442Z,8.90
2017-12-25T18:40:01.303Z,9.10
2017-12-25T18:42:30.549Z,5.10
2017-12-25T18:44:59.817Z,6.37
2017-12-25T18:47:29.058Z,5.57
2017-12-25T18:50:00.235Z,5.33
2017-12-25T18:52:29.584Z,4.77
2017-12-25T18:54:59.600Z,8.27
2017-12-25T18:57:29.074Z,7.23
2017-12-25T18:59:58.334Z,7.50
2017-12-25T19:02:27.586Z,5.90
2017-12-25T19:04:57.593Z,8.37
2017-12-25T19:07:26.873Z,7.07
2017-12-25T19:09:56.145Z,5.70
2017-12-25T19:12:26.178Z,6.23
2017-12-25T19:14:55.414Z,6.40
2017-12-25T19:17:24.674Z,6.57
2017-12-25T19:19:53.922Z,5.67
2017-12-25T19:22:23.227Z,6.50
2017-12-25T19:24:53.374Z,6.80
2017-12-25T19:27:22.829Z,5.07
2017-12-25T19:29:52.159Z,5.30
2017-12-25T19:32:22.279Z,6.93
2017-12-25T19:34:52.297Z,5.30
2017-12-25T19:37:21.543Z,8.80
2017-12-25T19:39:50.787Z,9.20
2017-12-25T19:42:20.497Z,5.60
2017-12-25T19:44:49.781Z,7.27
2017-12-25T19:47:19.014Z,6.77
2017-12-25T19:49:48.300Z,8.67
2017-12-25T19:52:17.753Z,6.10
2017-12-25T19:54:47.003Z,5.10
2017-12-25T19:57:16.234Z,6.47
2017-12-25T19:59:45.639Z,7.90
2017-12-25T20:02:14.873Z,6.97
2017-12-25T20:04:44.107Z,5.93
2017-12-25T20:07:13.382Z,6.93
2017-12-25T20:09:42.626Z,5.90
2017-12-25T20:12:12.943Z,5.10
2017-12-25T20:14:42.816Z,6.10
2017-12-25T20:17:12.148Z,9.70
2017-12-25T20:19:41.583Z,6.17
2017-12-25T20:22:10.975Z,5.67
2017-12-25T20:24:40.289Z,4.63
2017-12-25T20:27:10.286Z,6.37
2017-12-25T20:29:40.344Z,6.50
2017-12-25T20:32:09.897Z,5.67
2017-12-25T20:34:39.121Z,7.03
2017-12-25T20:37:09.219Z,6.27
2017-12-25T20:39:39.503Z,6.60
2017-12-25T20:42:08.921Z,5.33
2017-12-25T20:44:38.172Z,5.67
2017-12-25T20:47:07.408Z,5.27
2017-12-25T20:49:37.691Z,6.30
2017-12-25T20:52:07.094Z,5.10
2017-12-25T20:54:36.445Z,5.07
2017-12-25T20:57:05.697Z,6.77
2017-12-25T20:59:35.712Z,5.53
2017-12-25T21:02:05.735Z,5.03
2017-12-25T21:04:35.050Z,6.50
2017-12-25T21:07:05.053Z,6.70
2017-12-25T21:09:34.426Z,5.63
2017-12-25T21:12:03.646Z,5.97
2017-12-25T21:14:32.907Z,7.00
2017-12-25T21:17:02.154Z,6.50
2017-12-25T21:19:31.409Z,6.43
2017-12-25T21:22:00.650Z,7.23
2017-12-25T21:24:29.923Z,5.77
2017-12-25T21:26:59.430Z,6.20
2017-12-25T21:29:28.896Z,8.13
2017-12-25T21:31:58.174Z,6.73
2017-12-25T21:34:27.884Z,7.93
2017-12-25T21:36:57.150Z,7.67
2017-12-25T21:39:26.414Z,8.20
2017-12-25T21:41:56.514Z,6.17
2017-12-25T21:44:25.735Z,8.23
2017-12-25T21:46:55.018Z,9.23
2017-12-25T21:49:24.377Z,8.00
2017-12-25T21:51:53.616Z,10.47
2017-12-25T21:54:23.005Z,7.70
2017-12-25T21:56:53.001Z,9.60
2017-12-25T21:59:22.315Z,8.97
2017-12-25T22:01:51.568Z,10.30
2017-12-25T22:04:20.836Z,9.90
2017-12-25T22:06:50.097Z,9.73
2017-12-25T22:09:19.379Z,11.00
2017-12-25T22:11:48.680Z,10.80
2017-12-25T22:14:18.779Z,9.47
2017-12-25T22:16:48.108Z,11.10
2017-12-25T22:19:17.354Z,10.03
2017-12-25T22:21:47.678Z,10.77
2017-12-25T22:24:16.954Z,9.67
2017-12-25T22:26:46.198Z,10.33
2017-12-25T22:29:16.315Z,11.57
2017-12-25T22:31:45.590Z,11.83
2017-12-25T22:34:14.846Z,13.67
2017-12-25T22:36:44.098Z,11.60
2017-12-25T22:39:13.423Z,11.87
2017-12-25T22:41:43.444Z,12.10
2017-12-25T22:44:12.790Z,10.13
2017-12-25T22:46:42.026Z,12.40
2017-12-25T22:49:11.265Z,13.40
2017-12-25T22:51:40.538Z,12.40
2017-12-25T22:54:10.653Z,11.97
2017-12-25T22:56:40.784Z,11.63
2017-12-25T22:59:10.064Z,10.47
2017-12-25T23:01:39.306Z,11.30
2017-12-25T23:04:08.566Z,11.47
2017-12-25T23:06:37.852Z,10.90
2017-12-25T23:09:07.130Z,11.27
2017-12-25T23:11:36.388Z,11.77
2017-12-25T23:14:05.671Z,11.73
2017-12-25T23:16:35.763Z,12.53
2017-12-25T23:19:05.543Z,12.23
2017-12-25T23:21:34.823Z,10.87
2017-12-25T23:24:04.922Z,12.53
2017-12-25T23:26:35.050Z,12.27
2017-12-25T23:29:05.113Z,10.50
2017-12-25T23:31:34.434Z,11.67
2017-12-25T23:34:03.708Z,11.37
2017-12-25T23:36:33.081Z,11.50
2017-12-25T23:39:02.343Z,11.77
2017-12-25T23:41:31.607Z,11.60
2017-12-25T23:44:00.866Z,10.50
2017-12-25T23:46:31.638Z,12.43
2017-12-25T23:49:01.033Z,10.33
2017-12-25T23:51:30.294Z,10.23
2017-12-25T23:53:59.538Z,10.57
2017-12-25T23:56:28.806Z,10.30
2017-12-25T23:58:58.049Z,12.97
